sensor_id;sensor_type;location;lat;lon;timestamp;P1;durP1;ratioP1;P2;durP2;ratioP2
74191;SDS011;62551;51.180;4.366;2022-08-19T00:00:34;33.25;;;20.20;;
74191;SDS011;62551;51.180;4.366;2022-08-19T00:03:01;37.05;;;21.10;;
74191;SDS011;62551;51.180;4.366;2022-08-19T00:05:29;40.22;;;22.80;;
74191;SDS011;62551;51.180;4.366;2022-08-19T00:07:56;38.60;;;22.05;;
74191;SDS011;62551;51.180;4.366;2022-08-19T00:10:25;35.92;;;21.42;;
74191;SDS011;62551;51.180;4.366;2022-08-19T00:12:52;34.55;;;20.10;;
74191;SDS011;62551;51.180;4.366;2022-08-19T00:15:20;34.70;;;21.77;;
74191;SDS011;62551;51.180;4.366;2022-08-19T00:17:48;35.15;;;20.90;;
74191;SDS011;62551;51.180;4.366;2022-08-19T00:20:16;35.75;;;23.02;;
74191;SDS011;62551;51.180;4.366;2022-08-19T00:22:44;36.80;;;21.42;;
74191;SDS011;62551;51.180;4.366;2022-08-19T00:25:12;35.80;;;21.63;;
74191;SDS011;62551;51.180;4.366;2022-08-19T00:27:41;35.55;;;21.00;;
74191;SDS011;62551;51.180;4.366;2022-08-19T00:30:08;34.53;;;20.85;;
74191;SDS011;62551;51.180;4.366;2022-08-19T00:32:36;34.00;;;22.55;;
74191;SDS011;62551;51.180;4.366;2022-08-19T00:35:04;32.95;;;20.80;;
74191;SDS011;62551;51.180;4.366;2022-08-19T00:37:31;32.53;;;20.65;;
74191;SDS011;62551;51.180;4.366;2022-08-19T00:40:00;33.40;;;20.38;;
74191;SDS011;62551;51.180;4.366;2022-08-19T00:42:28;36.33;;;20.90;;
74191;SDS011;62551;51.180;4.366;2022-08-19T00:44:57;33.60;;;20.60;;
74191;SDS011;62551;51.180;4.366;2022-08-19T00:47:24;32.20;;;20.52;;
74191;SDS011;62551;51.180;4.366;2022-08-19T00:49:52;32.35;;;19.40;;
74191;SDS011;62551;51.180;4.366;2022-08-19T00:52:21;30.15;;;19.45;;
74191;SDS011;62551;51.180;4.366;2022-08-19T00:54:49;32.20;;;20.15;;
74191;SDS011;62551;51.180;4.366;2022-08-19T00:57:18;34.35;;;19.70;;
74191;SDS011;62551;51.180;4.366;2022-08-19T00:59:50;29.85;;;20.65;;
74191;SDS011;62551;51.180;4.366;2022-08-19T01:02:20;33.05;;;21.45;;
74191;SDS011;62551;51.180;4.366;2022-08-19T01:04:47;32.15;;;20.58;;
74191;SDS011;62551;51.180;4.366;2022-08-19T01:07:14;36.08;;;22.75;;
74191;SDS011;62551;51.180;4.366;2022-08-19T01:09:41;39.05;;;22.90;;
74191;SDS011;62551;51.180;4.366;2022-08-19T01:12:09;38.83;;;21.75;;
74191;SDS011;62551;51.180;4.366;2022-08-19T01:14:36;41.38;;;24.98;;
74191;SDS011;62551;51.180;4.366;2022-08-19T01:17:04;40.15;;;23.98;;
74191;SDS011;62551;51.180;4.366;2022-08-19T01:19:34;40.22;;;24.05;;
74191;SDS011;62551;51.180;4.366;2022-08-19T01:22:03;41.20;;;23.17;;
74191;SDS011;62551;51.180;4.366;2022-08-19T01:24:34;39.17;;;23.42;;
74191;SDS011;62551;51.180;4.366;2022-08-19T01:27:03;38.63;;;22.25;;
74191;SDS011;62551;51.180;4.366;2022-08-19T01:29:31;38.25;;;22.08;;
74191;SDS011;62551;51.180;4.366;2022-08-19T01:31:58;36.08;;;21.02;;
74191;SDS011;62551;51.180;4.366;2022-08-19T01:34:25;35.60;;;21.13;;
74191;SDS011;62551;51.180;4.366;2022-08-19T01:36:52;38.03;;;21.33;;
74191;SDS011;62551;51.180;4.366;2022-08-19T01:39:21;35.92;;;21.48;;
74191;SDS011;62551;51.180;4.366;2022-08-19T01:41:49;34.80;;;20.98;;
74191;SDS011;62551;51.180;4.366;2022-08-19T01:44:19;35.97;;;21.45;;
74191;SDS011;62551;51.180;4.366;2022-08-19T01:46:49;36.28;;;21.27;;
74191;SDS011;62551;51.180;4.366;2022-08-19T01:49:17;35.50;;;20.70;;
74191;SDS011;62551;51.180;4.366;2022-08-19T01:51:44;31.35;;;18.58;;
74191;SDS011;62551;51.180;4.366;2022-08-19T01:54:12;35.17;;;19.70;;
74191;SDS011;62551;51.180;4.366;2022-08-19T01:56:40;34.05;;;19.80;;
74191;SDS011;62551;51.180;4.366;2022-08-19T01:59:10;34.67;;;20.50;;
74191;SDS011;62551;51.180;4.366;2022-08-19T02:01:38;37.10;;;20.42;;
74191;SDS011;62551;51.180;4.366;2022-08-19T02:04:05;37.88;;;20.70;;
74191;SDS011;62551;51.180;4.366;2022-08-19T02:06:32;36.05;;;21.02;;
74191;SDS011;62551;51.180;4.366;2022-08-19T02:09:00;37.20;;;21.27;;
74191;SDS011;62551;51.180;4.366;2022-08-19T02:11:28;41.03;;;22.13;;
74191;SDS011;62551;51.180;4.366;2022-08-19T02:13:56;36.60;;;20.77;;
74191;SDS011;62551;51.180;4.366;2022-08-19T02:16:25;38.13;;;22.00;;
74191;SDS011;62551;51.180;4.366;2022-08-19T02:18:53;39.00;;;21.35;;
74191;SDS011;62551;51.180;4.366;2022-08-19T02:21:20;41.80;;;21.52;;
74191;SDS011;62551;51.180;4.366;2022-08-19T02:23:49;37.05;;;21.45;;
74191;SDS011;62551;51.180;4.366;2022-08-19T02:26:16;36.83;;;19.73;;
74191;SDS011;62551;51.180;4.366;2022-08-19T02:28:44;41.70;;;21.45;;
74191;SDS011;62551;51.180;4.366;2022-08-19T02:31:14;36.45;;;21.92;;
74191;SDS011;62551;51.180;4.366;2022-08-19T02:33:43;39.65;;;21.88;;
74191;SDS011;62551;51.180;4.366;2022-08-19T02:36:12;38.20;;;22.38;;
74191;SDS011;62551;51.180;4.366;2022-08-19T02:38:39;38.83;;;22.48;;
74191;SDS011;62551;51.180;4.366;2022-08-19T02:41:07;43.45;;;23.23;;
74191;SDS011;62551;51.180;4.366;2022-08-19T02:43:35;38.55;;;22.20;;
74191;SDS011;62551;51.180;4.366;2022-08-19T02:46:10;40.70;;;22.42;;
74191;SDS011;62551;51.180;4.366;2022-08-19T02:48:37;38.22;;;21.73;;
74191;SDS011;62551;51.180;4.366;2022-08-19T02:51:06;32.97;;;19.38;;
74191;SDS011;62551;51.180;4.366;2022-08-19T02:53:33;35.90;;;20.73;;
74191;SDS011;62551;51.180;4.366;2022-08-19T02:56:00;35.65;;;19.58;;
74191;SDS011;62551;51.180;4.366;2022-08-19T02:58:27;35.85;;;19.35;;
74191;SDS011;62551;51.180;4.366;2022-08-19T03:00:55;34.50;;;18.55;;
74191;SDS011;62551;51.180;4.366;2022-08-19T03:03:23;36.53;;;19.45;;
74191;SDS011;62551;51.180;4.366;2022-08-19T03:05:50;35.55;;;19.85;;
74191;SDS011;62551;51.180;4.366;2022-08-19T03:08:19;36.88;;;19.95;;
74191;SDS011;62551;51.180;4.366;2022-08-19T03:10:46;35.50;;;20.63;;
74191;SDS011;62551;51.180;4.366;2022-08-19T03:13:15;37.55;;;20.13;;
74191;SDS011;62551;51.180;4.366;2022-08-19T03:15:43;38.22;;;19.88;;
74191;SDS011;62551;51.180;4.366;2022-08-19T03:18:11;37.55;;;19.98;;
74191;SDS011;62551;51.180;4.366;2022-08-19T03:20:42;36.10;;;18.02;;
74191;SDS011;62551;51.180;4.366;2022-08-19T03:23:09;39.55;;;21.15;;
74191;SDS011;62551;51.180;4.366;2022-08-19T03:25:39;36.65;;;18.95;;
74191;SDS011;62551;51.180;4.366;2022-08-19T03:28:09;34.40;;;18.65;;
74191;SDS011;62551;51.180;4.366;2022-08-19T03:30:37;33.75;;;17.25;;
74191;SDS011;62551;51.180;4.366;2022-08-19T03:33:05;32.65;;;17.52;;
74191;SDS011;62551;51.180;4.366;2022-08-19T03:35:33;31.92;;;18.08;;
74191;SDS011;62551;51.180;4.366;2022-08-19T03:38:02;30.75;;;15.85;;
74191;SDS011;62551;51.180;4.366;2022-08-19T03:40:29;30.80;;;15.80;;
74191;SDS011;62551;51.180;4.366;2022-08-19T03:42:58;30.77;;;15.90;;
74191;SDS011;62551;51.180;4.366;2022-08-19T03:45:27;28.67;;;15.95;;
74191;SDS011;62551;51.180;4.366;2022-08-19T03:47:54;28.13;;;15.98;;
74191;SDS011;62551;51.180;4.366;2022-08-19T03:50:22;29.55;;;15.27;;
74191;SDS011;62551;51.180;4.366;2022-08-19T03:52:49;30.38;;;15.32;;
74191;SDS011;62551;51.180;4.366;2022-08-19T03:55:16;28.83;;;15.63;;
74191;SDS011;62551;51.180;4.366;2022-08-19T03:57:44;32.03;;;16.70;;
74191;SDS011;62551;51.180;4.366;2022-08-19T04:00:14;25.33;;;15.80;;
74191;SDS011;62551;51.180;4.366;2022-08-19T04:02:42;29.02;;;15.45;;
74191;SDS011;62551;51.180;4.366;2022-08-19T04:05:09;32.58;;;15.63;;
74191;SDS011;62551;51.180;4.366;2022-08-19T04:07:37;30.25;;;15.68;;
74191;SDS011;62551;51.180;4.366;2022-08-19T04:10:05;27.17;;;13.32;;
74191;SDS011;62551;51.180;4.366;2022-08-19T04:12:32;30.05;;;14.88;;
74191;SDS011;62551;51.180;4.366;2022-08-19T04:14:59;26.42;;;14.18;;
74191;SDS011;62551;51.180;4.366;2022-08-19T04:17:28;28.38;;;15.00;;
74191;SDS011;62551;51.180;4.366;2022-08-19T04:19:55;25.23;;;13.68;;
74191;SDS011;62551;51.180;4.366;2022-08-19T04:22:22;25.63;;;14.07;;
74191;SDS011;62551;51.180;4.366;2022-08-19T04:24:49;24.48;;;13.68;;
74191;SDS011;62551;51.180;4.366;2022-08-19T04:27:16;27.02;;;14.13;;
74191;SDS011;62551;51.180;4.366;2022-08-19T04:29:44;29.73;;;14.40;;
74191;SDS011;62551;51.180;4.366;2022-08-19T04:32:12;27.48;;;14.50;;
74191;SDS011;62551;51.180;4.366;2022-08-19T04:34:41;26.95;;;14.05;;
74191;SDS011;62551;51.180;4.366;2022-08-19T04:37:08;23.17;;;12.77;;
74191;SDS011;62551;51.180;4.366;2022-08-19T04:39:37;27.67;;;13.65;;
74191;SDS011;62551;51.180;4.366;2022-08-19T04:42:22;26.10;;;13.07;;
74191;SDS011;62551;51.180;4.366;2022-08-19T04:45:04;25.63;;;12.70;;
74191;SDS011;62551;51.180;4.366;2022-08-19T04:47:32;21.02;;;11.35;;
74191;SDS011;62551;51.180;4.366;2022-08-19T04:50:00;22.27;;;12.57;;
74191;SDS011;62551;51.180;4.366;2022-08-19T04:52:27;23.98;;;13.00;;
74191;SDS011;62551;51.180;4.366;2022-08-19T04:54:56;21.73;;;11.77;;
74191;SDS011;62551;51.180;4.366;2022-08-19T04:57:23;23.23;;;11.65;;
74191;SDS011;62551;51.180;4.366;2022-08-19T04:59:53;27.63;;;12.20;;
74191;SDS011;62551;51.180;4.366;2022-08-19T05:02:20;22.67;;;12.52;;
74191;SDS011;62551;51.180;4.366;2022-08-19T05:04:49;24.52;;;11.85;;
74191;SDS011;62551;51.180;4.366;2022-08-19T05:07:18;21.52;;;11.93;;
74191;SDS011;62551;51.180;4.366;2022-08-19T05:09:45;19.98;;;10.93;;
74191;SDS011;62551;51.180;4.366;2022-08-19T05:12:12;24.67;;;11.73;;
74191;SDS011;62551;51.180;4.366;2022-08-19T05:14:40;23.85;;;11.85;;
74191;SDS011;62551;51.180;4.366;2022-08-19T05:17:07;20.38;;;10.18;;
74191;SDS011;62551;51.180;4.366;2022-08-19T05:19:34;26.38;;;11.52;;
74191;SDS011;62551;51.180;4.366;2022-08-19T05:22:21;23.02;;;12.00;;
74191;SDS011;62551;51.180;4.366;2022-08-19T05:25:04;22.98;;;11.00;;
74191;SDS011;62551;51.180;4.366;2022-08-19T05:27:32;19.35;;;11.35;;
74191;SDS011;62551;51.180;4.366;2022-08-19T05:29:59;20.83;;;11.02;;
74191;SDS011;62551;51.180;4.366;2022-08-19T05:32:26;24.58;;;11.05;;
74191;SDS011;62551;51.180;4.366;2022-08-19T05:34:54;25.30;;;11.52;;
74191;SDS011;62551;51.180;4.366;2022-08-19T05:37:22;21.38;;;13.00;;
74191;SDS011;62551;51.180;4.366;2022-08-19T05:39:52;22.08;;;11.25;;
74191;SDS011;62551;51.180;4.366;2022-08-19T05:42:19;22.70;;;10.32;;
74191;SDS011;62551;51.180;4.366;2022-08-19T05:44:48;18.25;;;10.13;;
74191;SDS011;62551;51.180;4.366;2022-08-19T05:47:16;18.45;;;10.18;;
74191;SDS011;62551;51.180;4.366;2022-08-19T05:49:45;19.42;;;10.18;;
74191;SDS011;62551;51.180;4.366;2022-08-19T05:52:13;17.58;;;9.80;;
74191;SDS011;62551;51.180;4.366;2022-08-19T05:54:43;17.73;;;9.55;;
74191;SDS011;62551;51.180;4.366;2022-08-19T05:57:12;17.52;;;8.70;;
74191;SDS011;62551;51.180;4.366;2022-08-19T05:59:40;19.17;;;9.20;;
74191;SDS011;62551;51.180;4.366;2022-08-19T06:02:07;20.25;;;9.50;;
74191;SDS011;62551;51.180;4.366;2022-08-19T06:04:34;19.33;;;10.02;;
74191;SDS011;62551;51.180;4.366;2022-08-19T06:07:01;21.33;;;9.18;;
74191;SDS011;62551;51.180;4.366;2022-08-19T06:09:29;18.35;;;8.27;;
74191;SDS011;62551;51.180;4.366;2022-08-19T06:11:58;21.77;;;9.05;;
74191;SDS011;62551;51.180;4.366;2022-08-19T06:14:31;18.98;;;8.95;;
74191;SDS011;62551;51.180;4.366;2022-08-19T06:19:27;18.27;;;7.93;;
74191;SDS011;62551;51.180;4.366;2022-08-19T06:21:56;25.05;;;8.68;;
74191;SDS011;62551;51.180;4.366;2022-08-19T06:24:24;18.08;;;8.20;;
74191;SDS011;62551;51.180;4.366;2022-08-19T06:26:53;22.80;;;8.43;;
74191;SDS011;62551;51.180;4.366;2022-08-19T06:29:22;15.60;;;8.30;;
74191;SDS011;62551;51.180;4.366;2022-08-19T06:31:51;19.55;;;8.90;;
74191;SDS011;62551;51.180;4.366;2022-08-19T06:34:18;21.08;;;8.65;;
74191;SDS011;62551;51.180;4.366;2022-08-19T06:36:47;22.25;;;9.20;;
74191;SDS011;62551;51.180;4.366;2022-08-19T06:39:15;19.83;;;9.75;;
74191;SDS011;62551;51.180;4.366;2022-08-19T06:41:43;24.48;;;9.10;;
74191;SDS011;62551;51.180;4.366;2022-08-19T06:44:11;21.75;;;10.20;;
74191;SDS011;62551;51.180;4.366;2022-08-19T06:46:40;21.25;;;9.50;;
74191;SDS011;62551;51.180;4.366;2022-08-19T06:49:07;17.70;;;9.45;;
74191;SDS011;62551;51.180;4.366;2022-08-19T06:51:35;17.48;;;8.98;;
74191;SDS011;62551;51.180;4.366;2022-08-19T06:54:04;20.27;;;10.00;;
74191;SDS011;62551;51.180;4.366;2022-08-19T06:56:31;20.52;;;9.30;;
74191;SDS011;62551;51.180;4.366;2022-08-19T06:58:59;18.40;;;10.02;;
74191;SDS011;62551;51.180;4.366;2022-08-19T07:01:27;17.45;;;9.00;;
74191;SDS011;62551;51.180;4.366;2022-08-19T07:03:55;15.68;;;8.52;;
74191;SDS011;62551;51.180;4.366;2022-08-19T07:06:22;16.88;;;8.45;;
74191;SDS011;62551;51.180;4.366;2022-08-19T07:08:50;18.88;;;8.70;;
74191;SDS011;62551;51.180;4.366;2022-08-19T07:11:17;19.13;;;8.65;;
74191;SDS011;62551;51.180;4.366;2022-08-19T07:13:46;18.88;;;8.57;;
74191;SDS011;62551;51.180;4.366;2022-08-19T07:16:15;13.73;;;8.05;;
74191;SDS011;62551;51.180;4.366;2022-08-19T07:18:44;20.65;;;8.80;;
74191;SDS011;62551;51.180;4.366;2022-08-19T07:21:13;17.02;;;8.18;;
74191;SDS011;62551;51.180;4.366;2022-08-19T07:23:41;19.88;;;9.75;;
74191;SDS011;62551;51.180;4.366;2022-08-19T07:26:09;16.27;;;9.02;;
74191;SDS011;62551;51.180;4.366;2022-08-19T07:28:36;19.88;;;9.30;;
74191;SDS011;62551;51.180;4.366;2022-08-19T07:31:05;19.80;;;9.15;;
74191;SDS011;62551;51.180;4.366;2022-08-19T07:33:33;20.20;;;9.68;;
74191;SDS011;62551;51.180;4.366;2022-08-19T07:36:02;22.95;;;9.48;;
74191;SDS011;62551;51.180;4.366;2022-08-19T07:38:31;16.65;;;9.13;;
74191;SDS011;62551;51.180;4.366;2022-08-19T07:40:58;17.20;;;9.63;;
74191;SDS011;62551;51.180;4.366;2022-08-19T07:43:25;14.57;;;8.18;;
74191;SDS011;62551;51.180;4.366;2022-08-19T07:45:53;21.45;;;10.52;;
74191;SDS011;62551;51.180;4.366;2022-08-19T07:48:21;17.55;;;10.38;;
74191;SDS011;62551;51.180;4.366;2022-08-19T07:50:51;18.42;;;9.95;;
74191;SDS011;62551;51.180;4.366;2022-08-19T07:53:19;13.93;;;7.53;;
74191;SDS011;62551;51.180;4.366;2022-08-19T07:55:48;16.80;;;8.27;;
74191;SDS011;62551;51.180;4.366;2022-08-19T07:58:16;14.32;;;8.10;;
74191;SDS011;62551;51.180;4.366;2022-08-19T08:00:44;17.15;;;9.52;;
74191;SDS011;62551;51.180;4.366;2022-08-19T08:03:12;15.73;;;8.73;;
74191;SDS011;62551;51.180;4.366;2022-08-19T08:05:40;14.82;;;8.40;;
74191;SDS011;62551;51.180;4.366;2022-08-19T08:08:25;16.50;;;8.20;;
74191;SDS011;62551;51.180;4.366;2022-08-19T08:11:12;17.48;;;8.23;;
74191;SDS011;62551;51.180;4.366;2022-08-19T08:13:39;21.40;;;8.35;;
74191;SDS011;62551;51.180;4.366;2022-08-19T08:16:06;17.38;;;8.07;;
74191;SDS011;62551;51.180;4.366;2022-08-19T08:18:33;13.65;;;7.72;;
74191;SDS011;62551;51.180;4.366;2022-08-19T08:21:06;14.45;;;7.97;;
74191;SDS011;62551;51.180;4.366;2022-08-19T08:23:33;15.52;;;8.02;;
74191;SDS011;62551;51.180;4.366;2022-08-19T08:26:01;15.88;;;7.72;;
74191;SDS011;62551;51.180;4.366;2022-08-19T08:28:31;15.30;;;8.13;;
74191;SDS011;62551;51.180;4.366;2022-08-19T08:30:58;13.63;;;7.28;;
74191;SDS011;62551;51.180;4.366;2022-08-19T08:33:27;13.13;;;8.48;;
74191;SDS011;62551;51.180;4.366;2022-08-19T08:35:55;14.82;;;6.72;;
74191;SDS011;62551;51.180;4.366;2022-08-19T08:38:22;14.07;;;7.20;;
74191;SDS011;62551;51.180;4.366;2022-08-19T08:40:50;14.48;;;6.88;;
74191;SDS011;62551;51.180;4.366;2022-08-19T08:43:22;13.27;;;7.00;;
74191;SDS011;62551;51.180;4.366;2022-08-19T08:45:53;10.85;;;6.65;;
74191;SDS011;62551;51.180;4.366;2022-08-19T08:48:23;12.05;;;6.78;;
74191;SDS011;62551;51.180;4.366;2022-08-19T08:50:51;11.98;;;6.00;;
74191;SDS011;62551;51.180;4.366;2022-08-19T08:53:21;13.82;;;7.18;;
74191;SDS011;62551;51.180;4.366;2022-08-19T08:55:48;13.45;;;7.28;;
74191;SDS011;62551;51.180;4.366;2022-08-19T08:58:17;12.60;;;7.13;;
74191;SDS011;62551;51.180;4.366;2022-08-19T09:00:48;15.93;;;6.70;;
74191;SDS011;62551;51.180;4.366;2022-08-19T09:03:18;10.93;;;6.75;;
74191;SDS011;62551;51.180;4.366;2022-08-19T09:05:48;12.45;;;7.18;;
74191;SDS011;62551;51.180;4.366;2022-08-19T09:08:22;11.60;;;6.78;;
74191;SDS011;62551;51.180;4.366;2022-08-19T09:10:54;11.38;;;6.13;;
74191;SDS011;62551;51.180;4.366;2022-08-19T09:13:31;15.38;;;6.93;;
74191;SDS011;62551;51.180;4.366;2022-08-19T09:16:02;13.02;;;7.47;;
74191;SDS011;62551;51.180;4.366;2022-08-19T09:18:39;10.52;;;6.60;;
74191;SDS011;62551;51.180;4.366;2022-08-19T09:21:11;9.95;;;6.75;;
74191;SDS011;62551;51.180;4.366;2022-08-19T09:23:38;12.93;;;6.80;;
74191;SDS011;62551;51.180;4.366;2022-08-19T09:26:09;16.83;;;6.30;;
74191;SDS011;62551;51.180;4.366;2022-08-19T09:28:38;14.70;;;7.28;;
74191;SDS011;62551;51.180;4.366;2022-08-19T09:31:08;12.60;;;7.03;;
74191;SDS011;62551;51.180;4.366;2022-08-19T09:33:35;12.27;;;7.50;;
74191;SDS011;62551;51.180;4.366;2022-08-19T09:36:05;15.02;;;7.45;;
74191;SDS011;62551;51.180;4.366;2022-08-19T09:38:33;16.08;;;8.48;;
74191;SDS011;62551;51.180;4.366;2022-08-19T09:41:03;12.90;;;7.40;;
74191;SDS011;62551;51.180;4.366;2022-08-19T09:43:31;14.85;;;7.50;;
74191;SDS011;62551;51.180;4.366;2022-08-19T09:45:58;15.38;;;7.85;;
74191;SDS011;62551;51.180;4.366;2022-08-19T09:48:26;15.88;;;8.20;;
74191;SDS011;62551;51.180;4.366;2022-08-19T09:50:53;21.77;;;8.57;;
74191;SDS011;62551;51.180;4.366;2022-08-19T09:53:21;16.75;;;8.20;;
74191;SDS011;62551;51.180;4.366;2022-08-19T09:55:48;14.63;;;7.47;;
74191;SDS011;62551;51.180;4.366;2022-08-19T09:58:16;17.35;;;7.13;;
74191;SDS011;62551;51.180;4.366;2022-08-19T10:00:43;14.00;;;7.60;;
74191;SDS011;62551;51.180;4.366;2022-08-19T10:03:11;13.95;;;7.85;;
74191;SDS011;62551;51.180;4.366;2022-08-19T10:05:38;15.00;;;7.22;;
74191;SDS011;62551;51.180;4.366;2022-08-19T10:08:15;11.38;;;6.70;;
74191;SDS011;62551;51.180;4.366;2022-08-19T10:10:43;15.38;;;7.30;;
74191;SDS011;62551;51.180;4.366;2022-08-19T10:13:10;15.35;;;7.60;;
74191;SDS011;62551;51.180;4.366;2022-08-19T10:15:38;13.00;;;6.57;;
74191;SDS011;62551;51.180;4.366;2022-08-19T10:18:05;14.00;;;7.30;;
74191;SDS011;62551;51.180;4.366;2022-08-19T10:20:33;12.43;;;7.03;;
74191;SDS011;62551;51.180;4.366;2022-08-19T10:23:02;13.88;;;5.90;;
74191;SDS011;62551;51.180;4.366;2022-08-19T10:25:29;12.25;;;6.47;;
74191;SDS011;62551;51.180;4.366;2022-08-19T10:28:00;11.13;;;6.63;;
74191;SDS011;62551;51.180;4.366;2022-08-19T10:30:27;15.00;;;6.93;;
74191;SDS011;62551;51.180;4.366;2022-08-19T10:32:54;12.20;;;6.38;;
74191;SDS011;62551;51.180;4.366;2022-08-19T10:35:21;11.15;;;6.85;;
74191;SDS011;62551;51.180;4.366;2022-08-19T10:37:48;15.05;;;7.85;;
74191;SDS011;62551;51.180;4.366;2022-08-19T10:40:15;12.85;;;7.03;;
74191;SDS011;62551;51.180;4.366;2022-08-19T10:42:43;16.02;;;7.25;;
74191;SDS011;62551;51.180;4.366;2022-08-19T10:45:11;16.02;;;6.75;;
74191;SDS011;62551;51.180;4.366;2022-08-19T10:47:39;18.25;;;7.93;;
74191;SDS011;62551;51.180;4.366;2022-08-19T10:50:06;13.73;;;6.68;;
74191;SDS011;62551;51.180;4.366;2022-08-19T10:52:51;14.73;;;6.43;;
74191;SDS011;62551;51.180;4.366;2022-08-19T10:55:20;16.90;;;6.93;;
74191;SDS011;62551;51.180;4.366;2022-08-19T10:58:09;15.07;;;7.45;;
74191;SDS011;62551;51.180;4.366;2022-08-19T11:00:38;14.35;;;7.55;;
74191;SDS011;62551;51.180;4.366;2022-08-19T11:03:06;13.82;;;6.78;;
74191;SDS011;62551;51.180;4.366;2022-08-19T11:05:34;12.95;;;6.43;;
74191;SDS011;62551;51.180;4.366;2022-08-19T11:08:02;13.18;;;6.82;;
74191;SDS011;62551;51.180;4.366;2022-08-19T11:10:30;13.88;;;6.90;;
74191;SDS011;62551;51.180;4.366;2022-08-19T11:12:57;12.70;;;6.93;;
74191;SDS011;62551;51.180;4.366;2022-08-19T11:15:25;13.45;;;6.88;;
74191;SDS011;62551;51.180;4.366;2022-08-19T11:17:55;12.30;;;6.05;;
74191;SDS011;62551;51.180;4.366;2022-08-19T11:20:22;9.77;;;5.45;;
74191;SDS011;62551;51.180;4.366;2022-08-19T11:22:51;13.50;;;6.75;;
74191;SDS011;62551;51.180;4.366;2022-08-19T11:25:18;9.73;;;5.85;;
74191;SDS011;62551;51.180;4.366;2022-08-19T11:27:46;13.00;;;5.85;;
74191;SDS011;62551;51.180;4.366;2022-08-19T11:30:16;12.85;;;5.75;;
74191;SDS011;62551;51.180;4.366;2022-08-19T11:32:43;9.98;;;6.03;;
74191;SDS011;62551;51.180;4.366;2022-08-19T11:35:11;9.52;;;5.55;;
74191;SDS011;62551;51.180;4.366;2022-08-19T11:37:39;10.50;;;5.85;;
74191;SDS011;62551;51.180;4.366;2022-08-19T11:40:06;13.38;;;5.75;;
74191;SDS011;62551;51.180;4.366;2022-08-19T11:42:34;10.10;;;5.50;;
74191;SDS011;62551;51.180;4.366;2022-08-19T11:45:19;9.68;;;5.78;;
74191;SDS011;62551;51.180;4.366;2022-08-19T11:47:46;13.27;;;5.43;;
74191;SDS011;62551;51.180;4.366;2022-08-19T11:50:15;8.20;;;5.05;;
74191;SDS011;62551;51.180;4.366;2022-08-19T11:52:42;9.38;;;4.65;;
74191;SDS011;62551;51.180;4.366;2022-08-19T11:55:10;7.85;;;4.93;;
74191;SDS011;62551;51.180;4.366;2022-08-19T11:57:37;10.18;;;5.55;;
74191;SDS011;62551;51.180;4.366;2022-08-19T12:00:06;10.18;;;5.57;;
74191;SDS011;62551;51.180;4.366;2022-08-19T12:02:34;8.88;;;5.18;;
74191;SDS011;62551;51.180;4.366;2022-08-19T12:05:01;9.15;;;5.53;;
74191;SDS011;62551;51.180;4.366;2022-08-19T12:07:30;7.68;;;5.30;;
74191;SDS011;62551;51.180;4.366;2022-08-19T12:09:58;7.93;;;4.50;;
74191;SDS011;62551;51.180;4.366;2022-08-19T12:12:25;7.60;;;4.00;;
74191;SDS011;62551;51.180;4.366;2022-08-19T12:14:52;6.93;;;4.53;;
74191;SDS011;62551;51.180;4.366;2022-08-19T12:17:23;6.05;;;4.55;;
74191;SDS011;62551;51.180;4.366;2022-08-19T12:19:50;6.72;;;4.00;;
74191;SDS011;62551;51.180;4.366;2022-08-19T12:22:17;7.65;;;3.72;;
74191;SDS011;62551;51.180;4.366;2022-08-19T12:24:47;8.85;;;6.78;;
74191;SDS011;62551;51.180;4.366;2022-08-19T12:27:17;5.10;;;3.30;;
74191;SDS011;62551;51.180;4.366;2022-08-19T12:29:44;5.18;;;3.47;;
74191;SDS011;62551;51.180;4.366;2022-08-19T12:32:12;12.88;;;3.42;;
74191;SDS011;62551;51.180;4.366;2022-08-19T12:34:39;9.32;;;5.60;;
74191;SDS011;62551;51.180;4.366;2022-08-19T12:37:07;5.60;;;4.30;;
74191;SDS011;62551;51.180;4.366;2022-08-19T12:39:37;7.80;;;3.35;;
74191;SDS011;62551;51.180;4.366;2022-08-19T12:42:05;6.18;;;3.00;;
74191;SDS011;62551;51.180;4.366;2022-08-19T12:44:33;6.72;;;3.50;;
74191;SDS011;62551;51.180;4.366;2022-08-19T12:47:00;6.28;;;3.55;;
74191;SDS011;62551;51.180;4.366;2022-08-19T12:49:29;5.28;;;3.28;;
74191;SDS011;62551;51.180;4.366;2022-08-19T12:51:58;4.68;;;3.25;;
74191;SDS011;62551;51.180;4.366;2022-08-19T12:54:25;7.63;;;4.20;;
74191;SDS011;62551;51.180;4.366;2022-08-19T12:56:53;4.65;;;3.20;;
74191;SDS011;62551;51.180;4.366;2022-08-19T12:59:22;6.93;;;3.83;;
74191;SDS011;62551;51.180;4.366;2022-08-19T13:01:50;6.72;;;3.72;;
74191;SDS011;62551;51.180;4.366;2022-08-19T13:04:17;9.18;;;2.90;;
74191;SDS011;62551;51.180;4.366;2022-08-19T13:06:45;4.05;;;2.90;;
74191;SDS011;62551;51.180;4.366;2022-08-19T13:09:12;5.65;;;3.55;;
74191;SDS011;62551;51.180;4.366;2022-08-19T13:11:39;4.15;;;2.58;;
74191;SDS011;62551;51.180;4.366;2022-08-19T13:14:09;3.25;;;2.40;;
74191;SDS011;62551;51.180;4.366;2022-08-19T13:16:38;5.07;;;2.67;;
74191;SDS011;62551;51.180;4.366;2022-08-19T13:19:06;3.65;;;2.33;;
74191;SDS011;62551;51.180;4.366;2022-08-19T13:21:33;5.38;;;2.40;;
74191;SDS011;62551;51.180;4.366;2022-08-19T13:24:01;6.07;;;2.50;;
74191;SDS011;62551;51.180;4.366;2022-08-19T13:26:28;5.70;;;3.00;;
74191;SDS011;62551;51.180;4.366;2022-08-19T13:28:55;4.47;;;3.75;;
74191;SDS011;62551;51.180;4.366;2022-08-19T13:31:42;6.72;;;3.67;;
74191;SDS011;62551;51.180;4.366;2022-08-19T13:34:28;4.30;;;3.42;;
74191;SDS011;62551;51.180;4.366;2022-08-19T13:36:56;4.30;;;2.80;;
74191;SDS011;62551;51.180;4.366;2022-08-19T13:39:23;7.20;;;2.80;;
74191;SDS011;62551;51.180;4.366;2022-08-19T13:41:50;4.03;;;2.80;;
74191;SDS011;62551;51.180;4.366;2022-08-19T13:44:17;4.00;;;3.38;;
74191;SDS011;62551;51.180;4.366;2022-08-19T13:46:46;4.90;;;2.88;;
74191;SDS011;62551;51.180;4.366;2022-08-19T13:49:16;6.35;;;5.50;;
74191;SDS011;62551;51.180;4.366;2022-08-19T13:51:43;6.82;;;4.22;;
74191;SDS011;62551;51.180;4.366;2022-08-19T13:54:11;6.63;;;5.90;;
74191;SDS011;62551;51.180;4.366;2022-08-19T13:56:39;5.55;;;3.78;;
74191;SDS011;62551;51.180;4.366;2022-08-19T13:59:07;6.18;;;3.92;;
74191;SDS011;62551;51.180;4.366;2022-08-19T14:01:34;3.85;;;3.25;;
74191;SDS011;62551;51.180;4.366;2022-08-19T14:04:03;8.38;;;2.35;;
74191;SDS011;62551;51.180;4.366;2022-08-19T14:06:30;4.88;;;2.83;;
74191;SDS011;62551;51.180;4.366;2022-08-19T14:08:58;5.88;;;3.30;;
74191;SDS011;62551;51.180;4.366;2022-08-19T14:11:26;5.13;;;3.92;;
74191;SDS011;62551;51.180;4.366;2022-08-19T14:13:54;5.30;;;3.72;;
74191;SDS011;62551;51.180;4.366;2022-08-19T14:16:21;3.80;;;2.70;;
74191;SDS011;62551;51.180;4.366;2022-08-19T14:18:48;3.65;;;2.90;;
74191;SDS011;62551;51.180;4.366;2022-08-19T14:21:19;6.45;;;3.08;;
74191;SDS011;62551;51.180;4.366;2022-08-19T14:23:48;6.03;;;2.85;;
74191;SDS011;62551;51.180;4.366;2022-08-19T14:26:16;3.85;;;2.13;;
74191;SDS011;62551;51.180;4.366;2022-08-19T14:28:44;7.25;;;4.45;;
74191;SDS011;62551;51.180;4.366;2022-08-19T14:31:11;3.10;;;1.60;;
74191;SDS011;62551;51.180;4.366;2022-08-19T14:33:41;2.75;;;1.60;;
74191;SDS011;62551;51.180;4.366;2022-08-19T14:36:08;4.75;;;1.60;;
74191;SDS011;62551;51.180;4.366;2022-08-19T14:38:37;3.20;;;1.70;;
74191;SDS011;62551;51.180;4.366;2022-08-19T14:41:06;2.70;;;1.17;;